Time;durP1;ratioP1;P1;durP2;ratioP2;P2;SDS_P1;SDS_P2;PMS_P1;PMS_P2;Temp;Humidity;BMP_temperature;BMP_pressure;BME280_temperature;BME280_humidity;BME280_pressure;Samples;Min_cycle;Max_cycle;Signal;HPM_P1;HPM_P2
2020/12/22 00:02:00;;;;;;;;;91.75;81.00;;;;;7.28;47.52;99459.81;6156527;28;97155;-54
2020/12/22 00:05:02;;;;;;;;;93.00;81.00;;;;;7.03;47.43;99415.53;6156695;28;97467;-54
2020/12/22 00:08:11;;;;;;;;;91.00;79.00;;;;;7.24;47.52;99442.41;6156904;28;97140;-54
2020/12/22 00:11:12;;;;;;;;;89.25;74.75;;;;;7.19;47.45;99444.81;6143730;28;97314;-54
2020/12/22 00:14:14;;;;;;;;;90.00;78.67;;;;;7.15;47.31;99447.03;6156489;28;97523;-53
2020/12/22 00:17:15;;;;;;;;;88.20;77.80;;;;;7.15;47.13;99436.31;6156128;28;97085;-54
2020/12/22 00:20:17;;;;;;;;;90.00;74.80;;;;;7.14;47.27;99433.81;6155661;28;97884;-54
2020/12/22 00:23:18;;;;;;;;;92.20;78.00;;;;;7.13;47.15;99429.50;6156753;28;97039;-55
2020/12/22 00:26:19;;;;;;;;;86.60;75.80;;;;;7.09;47.15;99438.91;6156254;28;96684;-54
2020/12/22 00:29:21;;;;;;;;;94.00;75.40;;;;;7.03;47.16;99432.47;6156324;28;97147;-54
2020/12/22 00:32:22;;;;;;;;;85.00;73.40;;;;;6.80;46.98;99405.72;6156032;28;96690;-54
2020/12/22 00:35:23;;;;;;;;;88.20;75.00;;;;;6.97;46.84;99433.19;6156531;28;97645;-54
2020/12/22 00:38:25;;;;;;;;;82.00;72.60;;;;;6.87;47.04;99430.78;6156547;28;97422;-55
2020/12/22 00:41:26;;;;;;;;;80.60;70.00;;;;;6.88;47.06;99431.63;6156351;28;96917;-55
2020/12/22 00:44:28;;;;;;;;;83.40;71.40;;;;;6.90;46.96;99427.72;6138350;28;97445;-54
2020/12/22 00:47:29;;;;;;;;;86.20;73.00;;;;;6.88;47.12;99432.47;6156076;28;97415;-54
2020/12/22 00:50:31;;;;;;;;;82.00;70.75;;;;;6.80;46.92;99405.72;6156190;28;96619;-54
2020/12/22 00:53:32;;;;;;;;;84.00;72.50;;;;;6.71;47.01;99397.97;6156578;28;97030;-55
2020/12/22 00:56:34;;;;;;;;;85.50;72.75;;;;;6.82;46.48;99410.91;6122932;28;97813;-54
2020/12/22 00:59:41;;;;;;;;;86.80;71.20;;;;;6.82;46.96;99398.34;6138989;28;96903;-54
2020/12/22 01:02:42;;;;;;;;;83.00;73.00;;;;;6.82;46.92;99405.56;6156680;28;98156;-54
2020/12/22 01:05:44;;;;;;;;;84.80;69.80;;;;;6.78;47.04;99401.59;6156329;28;97449;-54
2020/12/22 01:08:45;;;;;;;;;84.00;72.20;;;;;6.76;46.80;99399.09;6156178;28;97365;-55
2020/12/22 01:11:47;;;;;;;;;87.80;70.40;;;;;6.73;46.96;99390.59;6155734;28;96806;-54
2020/12/22 01:14:48;;;;;;;;;81.25;71.00;;;;;6.80;46.67;99395.00;6156158;28;97835;-54
2020/12/22 01:17:49;;;;;;;;;86.00;72.50;;;;;6.76;46.72;99393.72;6156229;28;97051;-54
2020/12/22 01:20:51;;;;;;;;;81.75;68.00;;;;;6.61;46.85;99371.47;6156759;28;98484;-54
2020/12/22 01:23:52;;;;;;;;;79.00;67.00;;;;;6.63;46.95;99366.75;6160198;28;96666;-55
2020/12/22 01:26:54;;;;;;;;;78.60;66.60;;;;;6.72;46.52;99372.84;6161843;28;97597;-54
2020/12/22 01:29:55;;;;;;;;;77.75;65.25;;;;;6.47;46.49;99340.97;6161984;28;97176;-54
2020/12/22 01:32:57;;;;;;;;;76.60;64.80;;;;;6.70;46.76;99351.59;6162039;28;97375;-54
2020/12/22 01:35:58;;;;;;;;;75.00;62.80;;;;;6.71;46.75;99355.09;6144683;28;99214;-54
2020/12/22 01:38:59;;;;;;;;;77.00;65.00;;;;;6.73;46.97;99351.25;6160783;28;97963;-54
2020/12/22 01:42:06;;;;;;;;;78.60;63.80;;;;;6.69;46.81;99351.78;6162044;28;98395;-54
2020/12/22 01:45:07;;;;;;;;;75.60;63.00;;;;;6.66;46.68;99352.97;6160506;28;97107;-54
2020/12/22 01:48:10;;;;;;;;;75.60;61.00;;;;;6.67;46.70;99349.28;6161544;28;96737;-54
2020/12/22 01:51:11;;;;;;;;;74.00;61.00;;;;;6.68;46.61;99348.28;6136546;28;97249;-54
2020/12/22 01:54:14;;;;;;;;;72.00;57.00;;;;;6.68;46.83;99340.25;6137209;28;97672;-54
2020/12/22 01:57:16;;;;;;;;;70.60;55.60;;;;;6.56;46.74;99322.97;6137228;28;97040;-54
2020/12/22 02:00:17;;;;;;;;;74.00;59.50;;;;;6.64;46.79;99343.47;6136725;28;96865;-54
2020/12/22 02:03:19;;;;;;;;;70.00;55.00;;;;;6.61;46.61;99333.13;6157669;28;99362;-54
2020/12/22 02:06:20;;;;;;;;;70.00;53.00;;;;;6.63;46.42;99328.41;6160768;28;97922;-54
2020/12/22 02:09:21;;;;;;;;;72.80;58.80;;;;;6.63;46.60;99321.22;6160451;28;97162;-55
2020/12/22 02:12:23;;;;;;;;;71.00;53.00;;;;;6.54;46.44;99300.91;6159677;28;97650;-54
2020/12/22 02:15:26;;;;;;;;;69.00;54.00;;;;;6.56;46.44;99304.22;6161207;28;98601;-54
2020/12/22 02:18:27;;;;;;;;;72.40;57.60;;;;;5.69;46.10;99169.31;6159547;28;96536;-54
2020/12/22 02:21:29;;;;;;;;;67.75;53.00;;;;;6.49;46.16;99308.66;6160736;28;97496;-53
2020/12/22 02:24:34;;;;;;;;;70.60;54.80;;;;;6.48;46.35;99312.34;6160359;28;96969;-54
2020/12/22 02:27:36;;;;;;;;;70.80;53.00;;;;;6.46;46.36;99309.00;6161034;28;98380;-53
2020/12/22 02:30:38;;;;;;;;;70.00;54.60;;;;;6.47;46.42;99313.34;6159862;28;97738;-54
2020/12/22 02:33:40;;;;;;;;;72.00;55.20;;;;;6.33;46.50;99288.25;6159676;28;97267;-54
2020/12/22 02:36:41;;;;;;;;;70.00;53.40;;;;;6.47;46.46;99300.81;6160067;28;97245;-54
2020/12/22 02:39:43;;;;;;;;;69.75;54.00;;;;;6.09;46.25;99243.84;6160481;28;97646;-54
2020/12/22 02:42:44;;;;;;;;;68.40;51.60;;;;;6.39;46.36;99295.56;6159915;28;96754;-54
2020/12/22 02:45:50;;;;;;;;;67.00;53.00;;;;;6.32;46.29;99297.28;6160283;28;97416;-54
2020/12/22 02:48:52;;;;;;;;;70.75;53.00;;;;;6.31;46.19;99292.94;6159320;28;97103;-54
2020/12/22 02:51:53;;;;;;;;;73.25;55.00;;;;;5.92;46.32;99225.44;6159948;28;97357;-54
2020/12/22 02:54:55;;;;;;;;;70.00;55.00;;;;;6.06;46.14;99243.34;6159535;28;97074;-56
2020/12/22 02:57:57;;;;;;;;;70.00;53.00;;;;;6.28;45.97;99271.06;6160347;28;97091;-53
2020/12/22 03:00:58;;;;;;;;;68.50;52.50;;;;;6.15;46.14;99254.84;6159716;28;98515;-54
2020/12/22 03:03:59;;;;;;;;;69.40;52.60;;;;;5.98;46.22;99246.97;6159199;28;97511;-53
2020/12/22 03:07:01;;;;;;;;;70.00;54.50;;;;;6.05;46.51;99255.94;6159382;28;96842;-54
2020/12/22 03:10:06;;;;;;;;;72.40;54.60;;;;;6.02;46.41;99250.09;6160186;28;97215;-54
2020/12/22 03:13:08;;;;;;;;;69.40;53.40;;;;;6.00;46.07;99250.31;6160359;28;97759;-54
2020/12/22 03:16:09;;;;;;;;;66.40;52.00;;;;;5.91;46.21;99221.94;6160264;28;97260;-54
2020/12/22 03:19:10;;;;;;;;;69.75;52.00;;;;;6.02;46.01;99242.91;6159063;28;96593;-54
2020/12/22 03:22:12;;;;;;;;;71.60;52.80;;;;;5.99;46.14;99250.47;6142302;28;97012;-54
2020/12/22 03:25:13;;;;;;;;;70.20;54.80;;;;;5.97;46.23;99241.78;6159658;28;97453;-54
2020/12/22 03:28:15;;;;;;;;;70.00;53.80;;;;;5.99;46.24;99250.47;6159030;28;97464;-54
2020/12/22 03:31:17;;;;;;;;;70.60;54.00;;;;;5.99;46.15;99250.47;6159573;28;97612;-53
2020/12/22 03:34:18;;;;;;;;;69.80;54.20;;;;;6.04;46.19;99234.69;6158881;28;97735;-55
2020/12/22 03:37:20;;;;;;;;;67.50;51.25;;;;;6.08;46.18;99236.81;6159410;28;98165;-55
2020/12/22 03:40:21;;;;;;;;;69.40;52.40;;;;;6.09;46.39;99227.78;6158737;28;97046;-55
2020/12/22 03:43:23;;;;;;;;;68.40;52.00;;;;;6.11;46.40;99216.88;6158865;28;97687;-54
2020/12/22 03:46:26;;;;;;;;;67.60;52.00;;;;;6.17;46.28;99207.28;6158238;28;97164;-54
2020/12/22 03:49:27;;;;;;;;;68.25;53.00;;;;;6.26;46.21;99201.63;6158192;28;97099;-55
2020/12/22 03:52:29;;;;;;;;;68.40;53.00;;;;;6.32;46.46;99210.78;6159227;28;97536;-54
2020/12/22 03:55:32;;;;;;;;;69.40;54.60;;;;;6.37;46.21;99216.41;6158683;28;97081;-54
2020/12/22 03:58:33;;;;;;;;;70.75;53.75;;;;;6.45;46.23;99227.84;6159146;28;96606;-54
2020/12/22 04:01:34;;;;;;;;;68.20;52.00;;;;;6.53;46.09;99221.56;6158571;28;97017;-54
2020/12/22 04:04:36;;;;;;;;;71.00;53.00;;;;;6.64;46.25;99220.25;6159118;28;96978;-54
2020/12/22 04:07:38;;;;;;;;;68.75;54.25;;;;;6.64;46.20;99207.69;6159083;28;97463;-55
2020/12/22 04:10:40;;;;;;;;;70.50;54.50;;;;;6.71;46.08;99207.75;6158556;28;98682;-54
2020/12/22 04:13:41;;;;;;;;;70.00;53.50;;;;;6.76;45.86;99202.63;6159442;28;97295;-54
2020/12/22 04:16:43;;;;;;;;;69.60;53.40;;;;;6.85;46.32;99201.50;6158053;28;97258;-54
2020/12/22 04:19:45;;;;;;;;;71.80;55.40;;;;;6.90;46.25;99201.75;6158475;28;97533;-54
2020/12/22 04:22:46;;;;;;;;;71.33;54.67;;;;;6.98;46.30;99209.69;6158915;28;97431;-54
2020/12/22 04:25:48;;;;;;;;;73.00;55.00;;;;;7.02;45.75;99210.13;6158410;28;97445;-53
2020/12/22 04:28:50;;;;;;;;;71.80;53.80;;;;;6.80;45.73;99188.66;6158991;28;97165;-55
2020/12/22 04:31:51;;;;;;;;;71.00;56.00;;;;;6.91;45.21;99195.38;6158335;28;98294;-54
2020/12/22 04:34:54;;;;;;;;;71.00;53.00;;;;;6.79;45.37;99172.81;6157851;28;97625;-53
2020/12/22 04:37:55;;;;;;;;;72.00;55.40;;;;;6.72;45.51;99180.75;6158391;28;98205;-55
2020/12/22 04:40:59;;;;;;;;;71.20;55.60;;;;;6.49;45.74;99142.59;6157470;28;97453;-54
2020/12/22 04:44:01;;;;;;;;;69.00;53.00;;;;;6.71;46.19;99168.38;6157133;28;98416;-54
2020/12/22 04:47:04;;;;;;;;;70.00;56.00;;;;;6.64;46.12;99146.06;6155820;28;97459;-54
2020/12/22 04:50:06;;;;;;;;;73.00;55.00;;;;;6.84;46.09;99170.38;6158002;28;97454;-54
2020/12/22 04:53:07;;;;;;;;;70.00;55.00;;;;;6.81;46.21;99154.66;6158219;28;98112;-54
2020/12/22 04:56:08;;;;;;;;;68.50;53.25;;;;;6.91;45.93;99166.72;6157326;28;97508;-54
2020/12/22 04:59:10;;;;;;;;;71.00;55.60;;;;;6.99;45.98;99179.16;6160629;28;97270;-54
2020/12/22 05:02:15;;;;;;;;;69.00;54.50;;;;;6.77;46.21;99146.19;6156187;28;97464;-54
2020/12/22 05:05:19;;;;;;;;;70.00;54.00;;;;;6.99;45.90;99164.97;6161172;28;98565;-54
2020/12/22 05:08:21;;;;;;;;;71.00;54.75;;;;;6.99;45.82;99171.13;6160657;28;97929;-54
2020/12/22 05:11:26;;;;;;;;;71.40;56.80;;;;;6.92;45.91;99165.72;6161281;28;97336;-54
2020/12/22 05:14:30;;;;;;;;;70.00;57.00;;;;;6.67;45.79;99126.09;6143911;28;96544;-55
2020/12/22 05:17:40;;;;;;;;;70.20;53.40;;;;;7.00;46.06;99171.94;6163677;28;97214;-54
2020/12/22 05:20:43;;;;;;;;;68.00;54.00;;;;;7.06;45.14;99165.84;6162437;28;98587;-54
2020/12/22 05:23:47;;;;;;;;;69.60;54.40;;;;;7.11;45.79;99153.50;6161969;28;97005;-54
2020/12/22 05:26:49;;;;;;;;;73.33;57.00;;;;;7.12;45.88;99149.00;6160804;28;96905;-55
2020/12/22 05:29:51;;;;;;;;;71.60;54.00;;;;;7.14;45.83;99133.53;6158459;28;96712;-54
2020/12/22 05:32:52;;;;;;;;;71.80;54.20;;;;;7.16;45.81;99131.47;6158994;28;96907;-55
2020/12/22 05:35:56;;;;;;;;;72.00;57.00;;;;;7.17;46.02;99133.16;6160995;28;97632;-54
2020/12/22 05:38:57;;;;;;;;;70.00;54.75;;;;;7.21;46.05;99129.88;6161848;28;98477;-54
2020/12/22 05:42:10;;;;;;;;;72.00;57.50;;;;;7.23;45.95;99118.97;6144253;28;96656;-53
2020/12/22 05:45:12;;;;;;;;;70.00;53.50;;;;;7.06;45.89;99098.81;6160788;28;97650;-54
2020/12/22 05:48:15;;;;;;;;;71.40;56.00;;;;;7.34;45.95;99134.50;6161672;28;97454;-54
2020/12/22 05:51:17;;;;;;;;;70.20;53.80;;;;;7.32;45.87;99126.69;6161841;28;96456;-54
2020/12/22 05:54:19;;;;;;;;;73.00;55.40;;;;;7.36;45.81;99129.78;6161265;28;97509;-54
2020/12/22 05:57:30;;;;;;;;;71.20;55.00;;;;;7.39;45.92;99116.81;6161053;28;97602;-54
2020/12/22 06:00:32;;;;;;;;;70.80;53.00;;;;;7.34;46.06;99105.00;6161365;28;99127;-55
2020/12/22 06:03:34;;;;;;;;;69.00;53.40;;;;;7.31;46.31;99106.25;6160228;28;97368;-55
2020/12/22 06:06:36;;;;;;;;;66.60;51.20;;;;;7.39;46.54;99113.28;6143588;28;98533;-55
2020/12/22 06:09:38;;;;;;;;;68.50;53.50;;;;;7.45;46.44;99109.84;6151769;28;96609;-54
2020/12/22 06:12:41;;;;;;;;;67.00;52.00;;;;;7.45;46.39;99111.69;6159638;28;96641;-55
2020/12/22 06:15:42;;;;;;;;;69.50;53.25;;;;;7.51;46.32;99103.69;6159916;28;97028;-54
2020/12/22 06:18:51;;;;;;;;;69.80;53.00;;;;;7.57;46.45;99104.75;6160696;28;98386;-55
2020/12/22 06:21:57;;;;;;;;;67.40;52.00;;;;;7.60;46.48;99086.41;6159926;28;97763;-55
2020/12/22 06:24:59;;;;;;;;;68.40;52.40;;;;;7.70;46.20;99091.41;6159912;28;96463;-55
2020/12/22 06:28:00;;;;;;;;;68.20;53.00;;;;;7.60;46.37;99086.41;6142981;28;97164;-55
2020/12/22 06:31:22;;;;;;;;;70.40;53.40;;;;;7.35;46.57;99053.84;6158941;28;97226;-55
2020/12/22 06:34:25;;;;;;;;;65.00;51.00;;;;;7.59;46.60;99084.75;6160081;28;97413;-55
2020/12/22 06:37:43;;;;;;;;;69.50;53.00;;;;;7.55;46.56;99074.59;6159540;28;96960;-55
2020/12/22 06:40:52;;;;;;;;;66.40;53.00;;;;;7.59;46.82;99079.38;6133624;28;98133;-54
2020/12/22 06:43:55;;;;;;;;;70.80;52.20;;;;;7.65;47.02;99078.59;6134794;28;97657;-54
2020/12/22 06:47:01;;;;;;;;;71.75;52.00;;;;;7.73;46.95;99070.38;6134937;28;96533;-54
2020/12/22 06:50:03;;;;;;;;;70.00;52.60;;;;;7.78;46.61;99062.53;6134794;28;97546;-53
2020/12/22 06:53:05;;;;;;;;;70.00;52.60;;;;;7.84;46.47;99060.94;6135132;28;97640;-54
2020/12/22 06:56:07;;;;;;;;;68.40;52.00;;;;;7.71;46.42;99042.91;6156341;28;97341;-53
2020/12/22 06:59:12;;;;;;;;;72.00;54.00;;;;;7.88;46.34;99067.53;6159565;28;98317;-54
2020/12/22 07:02:36;;;;;;;;;70.40;54.80;;;;;7.93;46.38;99058.88;6159286;28;98621;-53
2020/12/22 07:05:48;;;;;;;;;69.00;51.40;;;;;7.99;46.36;99050.03;6159116;28;97150;-54
2020/12/22 07:08:50;;;;;;;;;66.67;53.00;;;;;7.85;46.16;99016.97;6160035;28;96978;-53
2020/12/22 07:11:56;;;;;;;;;68.00;53.00;;;;;7.93;46.34;99030.19;6160358;28;97865;-53
2020/12/22 07:14:58;;;;;;;;;68.33;52.00;;;;;8.10;46.35;99044.09;6158815;28;97394;-53
2020/12/22 07:18:14;;;;;;;;;70.20;55.00;;;;;8.15;46.45;99042.47;6159352;28;97558;-53
2020/12/22 07:21:19;;;;;;;;;69.00;52.00;;;;;8.28;46.46;99047.03;6158480;28;98664;-54
2020/12/22 07:24:20;;;;;;;;;67.40;52.00;;;;;8.36;46.63;99049.56;6158730;28;97232;-54
2020/12/22 07:27:22;;;;;;;;;67.00;52.00;;;;;8.39;46.48;99034.91;6159340;28;98070;-54
2020/12/22 07:30:23;;;;;;;;;67.75;53.00;;;;;8.61;46.53;99042.56;6158621;28;97245;-54
2020/12/22 07:33:25;;;;;;;;;71.80;54.00;;;;;8.70;46.02;99033.25;6158582;28;97207;-56
2020/12/22 07:36:26;;;;;;;;;71.40;55.00;;;;;8.79;46.13;99030.41;6158686;28;97667;-56
2020/12/22 07:39:28;;;;;;;;;71.60;55.00;;;;;8.87;46.21;99022.94;6159236;28;97674;-55
2020/12/22 07:42:29;;;;;;;;;69.75;53.25;;;;;8.93;46.00;99027.50;6158363;28;98187;-55
2020/12/22 07:45:31;;;;;;;;;69.40;53.00;;;;;9.00;46.20;99016.72;6157777;28;96944;-55
2020/12/22 07:48:32;;;;;;;;;70.00;53.00;;;;;9.07;46.16;99017.56;6157946;28;97259;-56
2020/12/22 07:51:34;;;;;;;;;69.50;52.00;;;;;9.15;46.15;99006.56;6157954;28;96564;-56
2020/12/22 07:54:36;;;;;;;;;69.40;52.00;;;;;9.27;46.00;99012.97;6157510;28;97386;-57
2020/12/22 07:57:39;;;;;;;;;69.00;52.00;;;;;9.27;45.82;98990.63;6157603;28;96471;-57
2020/12/22 08:00:41;;;;;;;;;67.00;53.00;;;;;9.28;45.55;98981.53;6158234;28;98377;-56
2020/12/22 08:03:42;;;;;;;;;70.00;53.00;;;;;9.46;45.79;99004.03;6140735;28;97194;-55
2020/12/22 08:07:05;;;;;;;;;70.00;53.00;;;;;9.61;45.78;99008.31;6158632;28;98549;-55
2020/12/22 08:10:16;;;;;;;;;72.25;55.00;;;;;9.72;45.84;99003.13;6158927;28;97560;-56
2020/12/22 08:13:21;;;;;;;;;72.67;54.33;;;;;9.86;45.62;99002.00;6158206;28;97382;-56
2020/12/22 08:16:24;;;;;;;;;70.40;52.20;;;;;9.94;45.57;98995.53;6158424;28;97255;-56
2020/12/22 08:19:29;;;;;;;;;73.00;56.00;;;;;9.92;44.91;98992.25;6157388;28;96939;-56
2020/12/22 08:22:32;;;;;;;;;71.60;57.00;;;;;9.73;45.08;98942.81;6158079;28;96586;-56
2020/12/22 08:25:34;;;;;;;;;68.00;53.00;;;;;9.88;45.34;98964.06;6158604;28;98489;-56
2020/12/22 08:28:35;;;;;;;;;72.00;56.40;;;;;9.94;45.44;98976.69;6158304;28;97631;-55
2020/12/22 08:31:39;;;;;;;;;71.00;55.00;;;;;10.13;45.55;98983.00;6159076;28;97181;-56
2020/12/22 08:34:44;;;;;;;;;72.00;55.00;;;;;10.26;45.57;98972.19;6162491;28;97534;-56
2020/12/22 08:37:46;;;;;;;;;72.00;55.60;;;;;10.44;45.57;98964.19;6162819;28;97512;-56
2020/12/22 08:40:49;;;;;;;;;70.50;55.50;;;;;10.78;44.99;98965.56;6161403;28;96760;-56
2020/12/22 08:43:54;;;;;;;;;72.00;55.60;;;;;10.93;44.41;98963.34;6142415;28;97674;-56
2020/12/22 08:46:55;;;;;;;;;72.80;56.80;;;;;10.98;44.31;98946.50;6161448;28;97228;-57
2020/12/22 08:50:07;;;;;;;;;72.80;55.00;;;;;10.67;44.22;98909.66;6161388;28;97483;-55
2020/12/22 08:53:13;;;;;;;;;70.00;55.00;;;;;10.81;44.58;98933.56;6161017;28;96724;-56
2020/12/22 08:56:15;;;;;;;;;69.80;55.80;;;;;10.71;44.45;98930.56;6160824;28;98164;-57
2020/12/22 08:59:16;;;;;;;;;69.80;53.00;;;;;10.69;44.76;98924.56;6160634;28;97169;-56
2020/12/22 09:02:29;;;;;;;;;68.75;52.75;;;;;10.63;45.00;98916.53;6160437;28;97204;-55
2020/12/22 09:05:31;;;;;;;;;69.20;54.20;;;;;10.59;45.00;98907.25;6160123;28;96742;-56
2020/12/22 09:08:32;;;;;;;;;73.80;57.60;;;;;10.54;45.38;98907.06;6160715;28;97195;-56
2020/12/22 09:11:35;;;;;;;;;70.20;57.00;;;;;10.55;45.62;98900.66;6143209;28;97567;-56
2020/12/22 09:14:40;;;;;;;;;74.00;57.00;;;;;10.54;45.64;98896.28;6160797;28;97241;-56
2020/12/22 09:17:41;;;;;;;;;73.60;55.00;;;;;10.56;45.64;98900.41;6160141;28;97039;-56
2020/12/22 09:20:42;;;;;;;;;75.40;58.60;;;;;10.55;45.64;98879.91;6160090;28;97331;-56
2020/12/22 09:23:44;;;;;;;;;70.00;55.50;;;;;10.57;45.69;98876.97;6160342;28;97279;-56
2020/12/22 09:27:07;;;;;;;;;69.00;55.40;;;;;10.56;45.71;98872.63;6160296;28;96609;-56
2020/12/22 09:30:11;;;;;;;;;72.00;58.75;;;;;10.59;45.89;98874.88;6159998;28;96556;-56
2020/12/22 09:33:14;;;;;;;;;72.20;56.80;;;;;10.57;45.98;98864.31;6165642;28;97747;-55
2020/12/22 09:36:15;;;;;;;;;70.00;56.00;;;;;10.59;45.93;98862.25;6185075;28;96667;-56
2020/12/22 09:39:17;;;;;;;;;75.00;61.00;;;;;10.51;45.96;98857.09;6173900;28;96773;-56
2020/12/22 09:42:19;;;;;;;;;73.00;60.40;;;;;10.53;46.08;98855.03;6159666;28;96793;-57
2020/12/22 09:45:21;;;;;;;;;75.00;59.60;;;;;10.54;46.05;98856.69;6159572;28;96639;-56
2020/12/22 09:48:23;;;;;;;;;75.40;61.60;;;;;10.56;46.19;98859.13;6160922;28;97436;-57
2020/12/22 09:51:24;;;;;;;;;73.20;57.40;;;;;10.19;45.98;98794.41;6142626;28;97428;-57
2020/12/22 09:54:25;;;;;;;;;76.00;62.80;;;;;10.47;46.14;98833.53;6159671;28;97210;-56
2020/12/22 09:57:27;;;;;;;;;71.20;58.20;;;;;10.61;46.03;98845.81;6160579;28;96734;-57
2020/12/22 10:00:28;;;;;;;;;73.00;58.40;;;;;10.58;46.31;98838.19;6160293;28;97541;-56
2020/12/22 10:03:30;;;;;;;;;75.00;61.50;;;;;10.61;46.36;98854.75;6160074;28;97020;-56
2020/12/22 10:06:31;;;;;;;;;71.40;54.60;;;;;10.65;46.37;98849.75;6160027;28;97657;-56
2020/12/22 10:09:33;;;;;;;;;72.00;55.80;;;;;10.63;46.11;98828.38;6165960;28;97386;-56
2020/12/22 10:12:34;;;;;;;;;73.40;58.40;;;;;10.75;46.36;98844.66;6185580;28;97556;-56
2020/12/22 10:15:36;;;;;;;;;74.40;58.20;;;;;10.70;46.04;98823.72;6185329;28;97278;-55
2020/12/22 10:18:37;;;;;;;;;73.75;57.75;;;;;10.80;46.14;98834.00;6185521;28;97080;-56
2020/12/22 10:21:39;;;;;;;;;77.00;63.00;;;;;10.79;46.33;98825.13;6184957;28;97268;-56
2020/12/22 10:24:42;;;;;;;;;70.00;56.00;;;;;10.83;46.19;98812.81;6167001;28;96938;-56
2020/12/22 10:27:43;;;;;;;;;73.80;60.20;;;;;10.81;46.01;98804.13;6167169;28;97356;-56
2020/12/22 10:30:44;;;;;;;;;75.75;60.75;;;;;10.86;45.89;98814.22;6184877;28;98085;-56
2020/12/22 10:33:47;;;;;;;;;77.00;62.80;;;;;10.90;45.88;98815.41;6185101;28;97022;-56
2020/12/22 10:36:49;;;;;;;;;75.00;59.20;;;;;10.94;45.96;98843.63;6160918;28;98575;-56
2020/12/22 10:39:51;;;;;;;;;76.00;61.00;;;;;10.97;46.05;98809.97;6160222;28;96649;-56
2020/12/22 10:42:53;;;;;;;;;76.50;64.00;;;;;11.00;46.14;98801.41;6160450;28;97360;-56
2020/12/22 10:45:57;;;;;;;;;75.40;61.20;;;;;10.97;46.08;98794.59;6160128;28;96694;-55
2020/12/22 10:48:58;;;;;;;;;75.60;62.60;;;;;10.69;46.21;98773.56;6159776;28;97910;-56
2020/12/22 10:52:00;;;;;;;;;77.60;62.60;;;;;10.89;46.36;98781.44;6159690;28;97196;-56
2020/12/22 10:55:01;;;;;;;;;76.00;65.00;;;;;10.90;46.28;98785.75;6158837;28;97240;-56
2020/12/22 10:58:03;;;;;;;;;75.00;63.00;;;;;10.95;46.45;98780.50;6159105;28;97403;-56
2020/12/22 11:01:04;;;;;;;;;77.00;63.20;;;;;10.97;46.30;98772.19;6159816;28;97698;-57
2020/12/22 11:04:07;;;;;;;;;77.40;63.00;;;;;10.97;46.27;98758.72;6159328;28;97178;-56
2020/12/22 11:07:27;;;;;;;;;76.00;63.00;;;;;10.94;46.23;98762.69;6160964;28;97426;-55
2020/12/22 11:10:30;;;;;;;;;73.50;59.00;;;;;10.93;46.22;98752.13;6160290;28;98205;-55
2020/12/22 11:13:31;;;;;;;;;76.80;65.00;;;;;10.84;46.40;98749.75;6158764;28;98444;-56
2020/12/22 11:16:33;;;;;;;;;78.00;62.40;;;;;10.54;46.77;98700.34;6156714;28;97337;-55
2020/12/22 11:19:34;;;;;;;;;76.20;63.80;;;;;10.86;46.94;98731.44;6157302;28;97179;-55
2020/12/22 11:22:36;;;;;;;;;80.00;65.60;;;;;10.91;47.15;98728.06;6147291;28;98670;-55
2020/12/22 11:25:48;;;;;;;;;78.00;67.33;;;;;10.96;47.15;98725.50;6158547;28;96913;-56
2020/12/22 11:28:50;;;;;;;;;77.00;64.50;;;;;11.00;46.95;98718.59;6159371;28;97275;-56
2020/12/22 11:31:51;;;;;;;;;75.00;62.60;;;;;11.02;47.21;98724.63;6156517;28;97508;-55
2020/12/22 11:34:53;;;;;;;;;77.60;67.80;;;;;11.05;47.25;98731.41;6158613;28;98279;-56
2020/12/22 11:37:54;;;;;;;;;76.60;63.40;;;;;11.13;47.66;98740.03;6139085;28;98537;-56
2020/12/22 11:40:56;;;;;;;;;76.00;64.40;;;;;11.18;48.23;98739.34;6157169;28;96664;-58
2020/12/22 11:43:57;;;;;;;;;75.40;61.00;;;;;11.23;48.12;98740.31;6157455;28;97649;-57
2020/12/22 11:46:59;;;;;;;;;76.40;63.60;;;;;11.19;48.23;98714.00;6158364;28;97048;-57
2020/12/22 11:50:00;;;;;;;;;76.00;63.67;;;;;11.37;48.03;98732.00;6158687;28;97409;-57
2020/12/22 11:53:05;;;;;;;;;75.00;62.00;;;;;11.37;47.92;98715.81;6158471;28;96968;-57
2020/12/22 11:56:07;;;;;;;;;76.00;65.00;;;;;11.36;47.80;98712.28;6158349;28;97511;-57
2020/12/22 11:59:09;;;;;;;;;76.00;63.00;;;;;11.36;47.85;98714.16;6147198;28;97915;-57
2020/12/22 12:02:10;;;;;;;;;74.50;60.75;;;;;11.27;48.16;98697.47;6157559;28;96727;-56
2020/12/22 12:05:12;;;;;;;;;75.80;62.20;;;;;11.26;48.35;98698.53;6156806;28;96670;-56
2020/12/22 12:08:13;;;;;;;;;74.50;60.75;;;;;11.23;48.46;98694.44;6157305;28;97455;-56
2020/12/22 12:11:15;;;;;;;;;73.80;59.00;;;;;11.29;48.43;98689.97;6157488;28;97121;-57
2020/12/22 12:14:18;;;;;;;;;77.00;65.00;;;;;11.37;48.36;98708.53;6157518;28;98528;-55
2020/12/22 12:17:20;;;;;;;;;76.50;64.00;;;;;11.22;48.42;98671.19;6153221;28;97111;-57
2020/12/22 12:20:21;;;;;;;;;74.40;60.60;;;;;11.35;48.71;98674.72;6158313;28;97389;-56
2020/12/22 12:23:23;;;;;;;;;76.40;62.60;;;;;11.51;48.42;98679.47;6158246;28;98763;-56
2020/12/22 12:26:26;;;;;;;;;72.60;56.60;;;;;11.59;48.50;98676.41;6158307;28;96663;-57
2020/12/22 12:29:28;;;;;;;;;70.00;54.00;;;;;11.07;48.51;98578.25;6154979;28;97474;-56
2020/12/22 12:32:33;;;;;;;;;71.00;53.80;;;;;11.81;48.38;98679.41;6157724;28;96960;-56
2020/12/22 12:35:34;;;;;;;;;70.60;56.60;;;;;11.91;48.34;98675.06;6154034;28;97506;-56
2020/12/22 12:38:36;;;;;;;;;70.00;55.00;;;;;11.99;48.62;98677.41;6156108;28;97449;-56
2020/12/22 12:41:38;;;;;;;;;71.40;59.00;;;;;12.07;48.40;98676.22;6156282;28;97480;-56
2020/12/22 12:44:39;;;;;;;;;67.60;52.00;;;;;12.14;48.62;98680.44;6155859;28;97505;-56
2020/12/22 12:47:41;;;;;;;;;71.75;57.75;;;;;12.19;48.32;98681.59;6155805;28;97352;-56
2020/12/22 12:50:42;;;;;;;;;70.00;53.00;;;;;12.24;48.25;98679.00;6154816;28;97283;-55
2020/12/22 12:53:44;;;;;;;;;71.40;54.60;;;;;12.28;48.30;98677.47;6155489;28;97401;-56
2020/12/22 12:56:48;;;;;;;;;71.00;57.00;;;;;12.30;48.28;98683.47;6155959;28;98177;-57
2020/12/22 12:59:50;;;;;;;;;68.40;53.00;;;;;12.06;48.48;98642.97;6156501;28;97739;-56
2020/12/22 13:02:51;;;;;;;;;71.00;53.40;;;;;12.29;48.27;98677.25;6156213;28;97453;-56
2020/12/22 13:05:53;;;;;;;;;70.20;53.00;;;;;12.23;48.30;98670.09;6155839;28;97316;-57
2020/12/22 13:08:54;;;;;;;;;69.60;52.40;;;;;12.35;48.17;98676.31;6156567;28;98540;-56
2020/12/22 13:11:56;;;;;;;;;65.75;51.25;;;;;12.37;48.31;98676.03;6155506;28;97136;-56
2020/12/22 13:14:57;;;;;;;;;67.25;52.00;;;;;12.38;48.06;98666.88;6155632;28;98581;-57
2020/12/22 13:17:58;;;;;;;;;69.00;52.00;;;;;12.37;48.05;98667.94;6157510;28;97175;-57
2020/12/22 13:21:01;;;;;;;;;70.25;53.75;;;;;12.32;47.97;98657.00;6159994;28;97827;-57
2020/12/22 13:24:03;;;;;;;;;68.40;52.20;;;;;12.30;48.25;98667.25;6160597;28;98305;-57
2020/12/22 13:27:08;;;;;;;;;70.00;53.67;;;;;12.24;48.16;98652.81;6159395;28;97375;-58
2020/12/22 13:30:10;;;;;;;;;68.00;52.60;;;;;12.29;48.25;98650.22;6149368;28;97549;-58
2020/12/22 13:33:11;;;;;;;;;67.40;52.00;;;;;12.29;48.42;98657.50;6154476;28;97560;-59
2020/12/22 13:36:13;;;;;;;;;63.00;49.40;;;;;12.08;48.50;98624.63;6160681;28;97456;-57
2020/12/22 13:39:34;;;;;;;;;61.00;47.00;;;;;12.41;48.80;98656.41;6160429;28;97569;-58
2020/12/22 13:42:36;;;;;;;;;61.75;48.00;;;;;12.46;48.93;98642.19;6161079;28;97604;-58
2020/12/22 13:45:37;;;;;;;;;60.60;47.80;;;;;12.53;48.97;98645.56;6160269;28;97264;-57
2020/12/22 13:48:38;;;;;;;;;60.00;46.00;;;;;12.58;48.80;98653.78;6160474;28;96914;-58
2020/12/22 13:51:40;;;;;;;;;51.20;40.20;;;;;12.62;49.66;98649.53;6160421;28;97029;-58
2020/12/22 13:54:42;;;;;;;;;35.00;32.00;;;;;12.74;49.67;98655.72;6153277;28;98924;-56
2020/12/22 13:57:46;;;;;;;;;36.00;31.75;;;;;12.58;50.05;98626.75;6143354;28;97450;-56
2020/12/22 14:00:48;;;;;;;;;33.00;29.50;;;;;12.87;49.91;98643.78;6159369;28;98649;-56
2020/12/22 14:03:50;;;;;;;;;33.00;28.00;;;;;12.66;50.05;98612.81;6159368;28;98633;-57
2020/12/22 14:06:54;;;;;;;;;36.25;30.75;;;;;12.82;50.03;98622.88;6159270;28;97254;-56